sensor_id;sensor_type;location;lat;lon;timestamp;temperature;humidity
13998;DHT22;7074;51.508;7.018;2023-12-14T00:00:28;9.50;99.90
13998;DHT22;7074;51.508;7.018;2023-12-14T00:02:55;9.60;99.90
13998;DHT22;7074;51.508;7.018;2023-12-14T00:05:22;9.70;99.90
13998;DHT22;7074;51.508;7.018;2023-12-14T00:07:51;9.80;99.90
13998;DHT22;7074;51.508;7.018;2023-12-14T00:10:18;9.70;99.90
13998;DHT22;7074;51.508;7.018;2023-12-14T00:12:45;9.80;99.90
13998;DHT22;7074;51.508;7.018;2023-12-14T00:15:14;9.80;99.90
13998;DHT22;7074;51.508;7.018;2023-12-14T00:17:42;9.80;99.90
13998;DHT22;7074;51.508;7.018;2023-12-14T00:20:09;9.80;99.90
13998;DHT22;7074;51.508;7.018;2023-12-14T00:22:36;9.80;99.90
13998;DHT22;7074;51.508;7.018;2023-12-14T00:25:06;9.80;99.90
13998;DHT22;7074;51.508;7.018;2023-12-14T00:27:34;9.80;99.90
13998;DHT22;7074;51.508;7.018;2023-12-14T00:30:01;9.80;99.90
13998;DHT22;7074;51.508;7.018;2023-12-14T00:32:28;9.80;99.90
13998;DHT22;7074;51.508;7.018;2023-12-14T00:34:55;9.70;99.90
13998;DHT22;7074;51.508;7.018;2023-12-14T00:37:23;9.80;99.90
13998;DHT22;7074;51.508;7.018;2023-12-14T00:39:51;9.70;99.90
13998;DHT22;7074;51.508;7.018;2023-12-14T00:42:18;9.50;99.90
13998;DHT22;7074;51.508;7.018;2023-12-14T00:44:45;9.40;99.90
13998;DHT22;7074;51.508;7.018;2023-12-14T00:47:12;9.30;99.90
13998;DHT22;7074;51.508;7.018;2023-12-14T00:49:40;9.20;99.90
13998;DHT22;7074;51.508;7.018;2023-12-14T00:52:07;9.20;99.90
13998;DHT22;7074;51.508;7.018;2023-12-14T00:54:34;9.00;99.90
13998;DHT22;7074;51.508;7.018;2023-12-14T00:57:01;8.90;99.90
13998;DHT22;7074;51.508;7.018;2023-12-14T00:59:30;8.90;99.90
13998;DHT22;7074;51.508;7.018;2023-12-14T01:01:57;8.80;99.90
13998;DHT22;7074;51.508;7.018;2023-12-14T01:04:24;8.70;99.90
13998;DHT22;7074;51.508;7.018;2023-12-14T01:06:52;8.80;99.90
13998;DHT22;7074;51.508;7.018;2023-12-14T01:09:19;8.90;99.90
13998;DHT22;7074;51.508;7.018;2023-12-14T01:11:46;9.00;99.90
13998;DHT22;7074;51.508;7.018;2023-12-14T01:14:14;9.10;99.90
13998;DHT22;7074;51.508;7.018;2023-12-14T01:16:43;9.10;99.90
13998;DHT22;7074;51.508;7.018;2023-12-14T01:19:10;9.20;99.90
13998;DHT22;7074;51.508;7.018;2023-12-14T01:21:37;9.20;99.90
13998;DHT22;7074;51.508;7.018;2023-12-14T01:24:05;9.20;99.90
13998;DHT22;7074;51.508;7.018;2023-12-14T01:26:32;9.20;99.90
13998;DHT22;7074;51.508;7.018;2023-12-14T01:28:59;9.20;99.90
13998;DHT22;7074;51.508;7.018;2023-12-14T01:31:27;9.30;99.90
13998;DHT22;7074;51.508;7.018;2023-12-14T01:33:55;9.20;99.90
13998;DHT22;7074;51.508;7.018;2023-12-14T01:36:24;9.10;99.90
13998;DHT22;7074;51.508;7.018;2023-12-14T01:38:52;8.90;99.90
13998;DHT22;7074;51.508;7.018;2023-12-14T01:41:19;8.90;99.90
13998;DHT22;7074;51.508;7.018;2023-12-14T01:43:46;8.80;99.90
13998;DHT22;7074;51.508;7.018;2023-12-14T01:46:13;8.90;99.90
13998;DHT22;7074;51.508;7.018;2023-12-14T01:48:42;8.90;99.90
13998;DHT22;7074;51.508;7.018;2023-12-14T01:51:10;9.00;99.90
13998;DHT22;7074;51.508;7.018;2023-12-14T01:53:38;8.80;99.90
13998;DHT22;7074;51.508;7.018;2023-12-14T01:56:07;8.90;99.90
13998;DHT22;7074;51.508;7.018;2023-12-14T01:58:34;8.80;99.90
13998;DHT22;7074;51.508;7.018;2023-12-14T02:01:05;8.70;99.90
13998;DHT22;7074;51.508;7.018;2023-12-14T02:03:35;8.70;99.90
13998;DHT22;7074;51.508;7.018;2023-12-14T02:06:02;8.80;99.90
13998;DHT22;7074;51.508;7.018;2023-12-14T02:08:31;8.80;99.90
13998;DHT22;7074;51.508;7.018;2023-12-14T02:10:58;8.80;99.90
13998;DHT22;7074;51.508;7.018;2023-12-14T02:13:25;8.70;99.90
13998;DHT22;7074;51.508;7.018;2023-12-14T02:15:53;8.60;99.90
13998;DHT22;7074;51.508;7.018;2023-12-14T02:18:20;8.40;99.90
13998;DHT22;7074;51.508;7.018;2023-12-14T02:20:47;8.50;99.90
13998;DHT22;7074;51.508;7.018;2023-12-14T02:23:16;8.60;99.90
13998;DHT22;7074;51.508;7.018;2023-12-14T02:25:43;8.60;99.90
13998;DHT22;7074;51.508;7.018;2023-12-14T02:28:11;8.50;99.90
13998;DHT22;7074;51.508;7.018;2023-12-14T02:30:38;8.40;99.90
13998;DHT22;7074;51.508;7.018;2023-12-14T02:33:05;8.60;99.90
13998;DHT22;7074;51.508;7.018;2023-12-14T02:35:32;8.60;99.90
13998;DHT22;7074;51.508;7.018;2023-12-14T02:38:00;8.50;99.90
13998;DHT22;7074;51.508;7.018;2023-12-14T02:40:28;8.30;99.90
13998;DHT22;7074;51.508;7.018;2023-12-14T02:42:55;8.40;99.90
13998;DHT22;7074;51.508;7.018;2023-12-14T02:45:23;8.30;99.90
13998;DHT22;7074;51.508;7.018;2023-12-14T02:47:50;8.40;99.90
13998;DHT22;7074;51.508;7.018;2023-12-14T02:50:18;8.50;99.90
13998;DHT22;7074;51.508;7.018;2023-12-14T02:52:45;8.50;99.90
13998;DHT22;7074;51.508;7.018;2023-12-14T02:55:12;8.40;99.90
13998;DHT22;7074;51.508;7.018;2023-12-14T02:57:41;8.40;99.90
13998;DHT22;7074;51.508;7.018;2023-12-14T03:00:09;8.40;99.90
13998;DHT22;7074;51.508;7.018;2023-12-14T03:02:37;8.20;99.90
13998;DHT22;7074;51.508;7.018;2023-12-14T03:05:05;8.20;99.90
13998;DHT22;7074;51.508;7.018;2023-12-14T03:07:32;8.20;99.90
13998;DHT22;7074;51.508;7.018;2023-12-14T03:10:00;8.40;99.90
13998;DHT22;7074;51.508;7.018;2023-12-14T03:12:27;8.40;99.90
13998;DHT22;7074;51.508;7.018;2023-12-14T03:14:56;8.30;99.90
13998;DHT22;7074;51.508;7.018;2023-12-14T03:17:23;8.30;99.90
13998;DHT22;7074;51.508;7.018;2023-12-14T03:19:50;8.40;99.90
13998;DHT22;7074;51.508;7.018;2023-12-14T03:22:17;8.50;99.90
13998;DHT22;7074;51.508;7.018;2023-12-14T03:24:45;8.50;99.90
13998;DHT22;7074;51.508;7.018;2023-12-14T03:27:12;8.50;99.90
13998;DHT22;7074;51.508;7.018;2023-12-14T03:29:40;8.30;99.90
13998;DHT22;7074;51.508;7.018;2023-12-14T03:32:09;8.30;99.90
13998;DHT22;7074;51.508;7.018;2023-12-14T03:34:36;8.30;99.90
13998;DHT22;7074;51.508;7.018;2023-12-14T03:37:03;8.30;99.90
13998;DHT22;7074;51.508;7.018;2023-12-14T03:39:31;8.30;99.90
13998;DHT22;7074;51.508;7.018;2023-12-14T03:41:58;8.30;99.90
13998;DHT22;7074;51.508;7.018;2023-12-14T03:44:25;8.50;99.90
13998;DHT22;7074;51.508;7.018;2023-12-14T03:46:53;8.60;99.90
13998;DHT22;7074;51.508;7.018;2023-12-14T03:49:23;8.60;99.90
13998;DHT22;7074;51.508;7.018;2023-12-14T03:51:50;8.50;99.90
13998;DHT22;7074;51.508;7.018;2023-12-14T03:54:17;8.60;99.90
13998;DHT22;7074;51.508;7.018;2023-12-14T03:56:45;8.70;99.90
13998;DHT22;7074;51.508;7.018;2023-12-14T03:59:12;8.50;99.90
13998;DHT22;7074;51.508;7.018;2023-12-14T04:01:39;8.30;99.90
13998;DHT22;7074;51.508;7.018;2023-12-14T04:04:07;8.40;99.90
13998;DHT22;7074;51.508;7.018;2023-12-14T04:06:36;8.50;99.90
13998;DHT22;7074;51.508;7.018;2023-12-14T04:09:03;8.40;99.90
13998;DHT22;7074;51.508;7.018;2023-12-14T04:11:31;8.30;99.90
13998;DHT22;7074;51.508;7.018;2023-12-14T04:13:58;8.40;99.90
13998;DHT22;7074;51.508;7.018;2023-12-14T04:16:25;8.30;99.90
13998;DHT22;7074;51.508;7.018;2023-12-14T04:18:53;8.30;99.90
13998;DHT22;7074;51.508;7.018;2023-12-14T04:21:20;8.30;99.90
13998;DHT22;7074;51.508;7.018;2023-12-14T04:23:49;8.20;99.90
13998;DHT22;7074;51.508;7.018;2023-12-14T04:26:16;8.20;99.90
13998;DHT22;7074;51.508;7.018;2023-12-14T04:28:44;8.30;99.90
13998;DHT22;7074;51.508;7.018;2023-12-14T04:31:12;8.20;99.90
13998;DHT22;7074;51.508;7.018;2023-12-14T04:33:40;8.20;99.90
13998;DHT22;7074;51.508;7.018;2023-12-14T04:36:07;8.20;99.90
13998;DHT22;7074;51.508;7.018;2023-12-14T04:38:35;8.10;99.90
13998;DHT22;7074;51.508;7.018;2023-12-14T04:41:04;8.20;99.90
13998;DHT22;7074;51.508;7.018;2023-12-14T04:43:32;8.20;99.90
13998;DHT22;7074;51.508;7.018;2023-12-14T04:45:59;8.10;99.90
13998;DHT22;7074;51.508;7.018;2023-12-14T04:48:26;8.20;99.90
13998;DHT22;7074;51.508;7.018;2023-12-14T04:50:54;8.30;99.90
13998;DHT22;7074;51.508;7.018;2023-12-14T04:53:21;8.40;99.90
13998;DHT22;7074;51.508;7.018;2023-12-14T04:55:48;8.40;99.90
13998;DHT22;7074;51.508;7.018;2023-12-14T04:58:17;8.20;99.90
13998;DHT22;7074;51.508;7.018;2023-12-14T05:00:44;8.00;99.90
13998;DHT22;7074;51.508;7.018;2023-12-14T05:03:12;8.20;99.90
13998;DHT22;7074;51.508;7.018;2023-12-14T05:05:42;8.10;99.90
13998;DHT22;7074;51.508;7.018;2023-12-14T05:08:10;8.10;99.90
13998;DHT22;7074;51.508;7.018;2023-12-14T05:10:37;8.00;99.90
13998;DHT22;7074;51.508;7.018;2023-12-14T05:13:05;8.00;99.90
13998;DHT22;7074;51.508;7.018;2023-12-14T05:15:34;8.10;99.90
13998;DHT22;7074;51.508;7.018;2023-12-14T05:18:01;8.00;99.90
13998;DHT22;7074;51.508;7.018;2023-12-14T05:20:28;8.00;99.90
13998;DHT22;7074;51.508;7.018;2023-12-14T05:22:56;8.00;99.90
13998;DHT22;7074;51.508;7.018;2023-12-14T05:25:23;8.10;99.90
13998;DHT22;7074;51.508;7.018;2023-12-14T05:27:50;7.90;99.90
13998;DHT22;7074;51.508;7.018;2023-12-14T05:30:17;7.90;99.90
13998;DHT22;7074;51.508;7.018;2023-12-14T05:32:46;8.00;99.90
13998;DHT22;7074;51.508;7.018;2023-12-14T05:35:14;8.00;99.90
13998;DHT22;7074;51.508;7.018;2023-12-14T05:37:41;8.00;99.90
13998;DHT22;7074;51.508;7.018;2023-12-14T05:40:10;8.00;99.90
13998;DHT22;7074;51.508;7.018;2023-12-14T05:42:38;8.00;99.90
13998;DHT22;7074;51.508;7.018;2023-12-14T05:45:06;8.20;99.90
13998;DHT22;7074;51.508;7.018;2023-12-14T05:47:33;8.20;99.90
13998;DHT22;7074;51.508;7.018;2023-12-14T05:50:04;8.20;99.90
13998;DHT22;7074;51.508;7.018;2023-12-14T05:52:31;8.20;99.90
13998;DHT22;7074;51.508;7.018;2023-12-14T05:54:58;8.20;99.90
13998;DHT22;7074;51.508;7.018;2023-12-14T05:57:26;8.10;99.90
13998;DHT22;7074;51.508;7.018;2023-12-14T05:59:53;8.10;99.90
13998;DHT22;7074;51.508;7.018;2023-12-14T06:02:21;8.00;99.90
13998;DHT22;7074;51.508;7.018;2023-12-14T06:04:48;8.10;99.90
13998;DHT22;7074;51.508;7.018;2023-12-14T06:07:17;8.20;99.90
13998;DHT22;7074;51.508;7.018;2023-12-14T06:09:44;8.30;99.90
13998;DHT22;7074;51.508;7.018;2023-12-14T06:12:12;8.30;99.90
13998;DHT22;7074;51.508;7.018;2023-12-14T06:14:40;8.40;99.90
13998;DHT22;7074;51.508;7.018;2023-12-14T06:17:07;8.30;99.90
13998;DHT22;7074;51.508;7.018;2023-12-14T06:19:35;8.30;99.90
13998;DHT22;7074;51.508;7.018;2023-12-14T06:22:02;8.20;99.90
13998;DHT22;7074;51.508;7.018;2023-12-14T06:24:31;8.30;99.90
13998;DHT22;7074;51.508;7.018;2023-12-14T06:26:59;8.30;99.90
13998;DHT22;7074;51.508;7.018;2023-12-14T06:29:27;8.30;99.90
13998;DHT22;7074;51.508;7.018;2023-12-14T06:31:54;8.20;99.90
13998;DHT22;7074;51.508;7.018;2023-12-14T06:34:21;8.10;99.90
13998;DHT22;7074;51.508;7.018;2023-12-14T06:36:49;8.10;99.90
13998;DHT22;7074;51.508;7.018;2023-12-14T06:39:16;8.10;99.90
13998;DHT22;7074;51.508;7.018;2023-12-14T06:41:45;8.00;99.90
13998;DHT22;7074;51.508;7.018;2023-12-14T06:44:12;8.00;99.90
13998;DHT22;7074;51.508;7.018;2023-12-14T06:46:40;8.00;99.90
13998;DHT22;7074;51.508;7.018;2023-12-14T06:49:07;8.10;99.90
13998;DHT22;7074;51.508;7.018;2023-12-14T06:51:35;8.00;99.90
13998;DHT22;7074;51.508;7.018;2023-12-14T06:54:02;8.00;99.90
13998;DHT22;7074;51.508;7.018;2023-12-14T06:56:30;8.00;99.90
13998;DHT22;7074;51.508;7.018;2023-12-14T06:58:59;8.10;99.90
13998;DHT22;7074;51.508;7.018;2023-12-14T07:01:26;7.90;99.90
13998;DHT22;7074;51.508;7.018;2023-12-14T07:03:53;7.90;99.90
13998;DHT22;7074;51.508;7.018;2023-12-14T07:06:21;7.90;99.90
13998;DHT22;7074;51.508;7.018;2023-12-14T07:08:48;7.90;99.90
13998;DHT22;7074;51.508;7.018;2023-12-14T07:11:16;7.80;99.90
13998;DHT22;7074;51.508;7.018;2023-12-14T07:13:44;7.90;99.90
13998;DHT22;7074;51.508;7.018;2023-12-14T07:16:15;7.90;99.90
13998;DHT22;7074;51.508;7.018;2023-12-14T07:18:43;7.90;99.90
13998;DHT22;7074;51.508;7.018;2023-12-14T07:21:11;8.00;99.90
13998;DHT22;7074;51.508;7.018;2023-12-14T07:23:38;7.90;99.90
13998;DHT22;7074;51.508;7.018;2023-12-14T07:26:05;7.80;99.90
13998;DHT22;7074;51.508;7.018;2023-12-14T07:28:33;7.70;99.90
13998;DHT22;7074;51.508;7.018;2023-12-14T07:31:00;7.80;99.90
13998;DHT22;7074;51.508;7.018;2023-12-14T07:33:29;7.70;99.90
13998;DHT22;7074;51.508;7.018;2023-12-14T07:35:56;7.60;99.90
13998;DHT22;7074;51.508;7.018;2023-12-14T07:38:23;7.60;99.90
13998;DHT22;7074;51.508;7.018;2023-12-14T07:40:51;7.70;99.90
13998;DHT22;7074;51.508;7.018;2023-12-14T07:43:18;7.70;99.90
13998;DHT22;7074;51.508;7.018;2023-12-14T07:45:45;7.80;99.90
13998;DHT22;7074;51.508;7.018;2023-12-14T07:48:12;7.80;99.90
13998;DHT22;7074;51.508;7.018;2023-12-14T07:50:41;7.70;99.90
13998;DHT22;7074;51.508;7.018;2023-12-14T07:53:08;7.70;99.90
13998;DHT22;7074;51.508;7.018;2023-12-14T07:55:35;7.80;99.90
13998;DHT22;7074;51.508;7.018;2023-12-14T07:58:03;7.90;99.90
13998;DHT22;7074;51.508;7.018;2023-12-14T08:00:30;8.00;99.90
13998;DHT22;7074;51.508;7.018;2023-12-14T08:02:57;8.00;99.90
13998;DHT22;7074;51.508;7.018;2023-12-14T08:05:25;8.00;99.90
13998;DHT22;7074;51.508;7.018;2023-12-14T08:07:53;7.90;99.90
13998;DHT22;7074;51.508;7.018;2023-12-14T08:10:20;7.90;99.90
13998;DHT22;7074;51.508;7.018;2023-12-14T08:12:48;7.90;99.90
13998;DHT22;7074;51.508;7.018;2023-12-14T08:15:17;7.90;99.90
13998;DHT22;7074;51.508;7.018;2023-12-14T08:17:45;7.80;99.90
13998;DHT22;7074;51.508;7.018;2023-12-14T08:20:12;7.80;99.90
13998;DHT22;7074;51.508;7.018;2023-12-14T08:22:40;7.80;99.90
13998;DHT22;7074;51.508;7.018;2023-12-14T08:25:13;7.80;99.90
13998;DHT22;7074;51.508;7.018;2023-12-14T08:27:40;7.90;99.90
13998;DHT22;7074;51.508;7.018;2023-12-14T08:30:08;7.90;99.90
13998;DHT22;7074;51.508;7.018;2023-12-14T08:32:36;8.00;99.90
13998;DHT22;7074;51.508;7.018;2023-12-14T08:35:04;8.00;99.90
13998;DHT22;7074;51.508;7.018;2023-12-14T08:37:31;8.00;99.90
13998;DHT22;7074;51.508;7.018;2023-12-14T08:39:58;7.90;99.90
13998;DHT22;7074;51.508;7.018;2023-12-14T08:42:27;8.00;99.90
13998;DHT22;7074;51.508;7.018;2023-12-14T08:44:55;8.00;99.90
13998;DHT22;7074;51.508;7.018;2023-12-14T08:47:22;8.10;99.90
13998;DHT22;7074;51.508;7.018;2023-12-14T08:49:50;8.10;99.90
13998;DHT22;7074;51.508;7.018;2023-12-14T08:52:18;8.10;99.90
13998;DHT22;7074;51.508;7.018;2023-12-14T08:54:46;8.00;99.90
13998;DHT22;7074;51.508;7.018;2023-12-14T08:57:13;8.00;99.90
13998;DHT22;7074;51.508;7.018;2023-12-14T08:59:41;7.90;99.90
13998;DHT22;7074;51.508;7.018;2023-12-14T09:02:09;7.90;99.90
13998;DHT22;7074;51.508;7.018;2023-12-14T09:04:36;7.90;99.90
13998;DHT22;7074;51.508;7.018;2023-12-14T09:07:04;7.80;99.90
13998;DHT22;7074;51.508;7.018;2023-12-14T09:09:31;7.90;99.90
13998;DHT22;7074;51.508;7.018;2023-12-14T09:11:58;7.90;99.90
13998;DHT22;7074;51.508;7.018;2023-12-14T09:14:25;8.00;99.90
13998;DHT22;7074;51.508;7.018;2023-12-14T09:16:54;8.10;99.90
13998;DHT22;7074;51.508;7.018;2023-12-14T09:19:21;8.10;99.90
13998;DHT22;7074;51.508;7.018;2023-12-14T09:21:48;8.10;99.90
13998;DHT22;7074;51.508;7.018;2023-12-14T09:24:15;8.10;99.90
13998;DHT22;7074;51.508;7.018;2023-12-14T09:26:43;8.20;99.90
13998;DHT22;7074;51.508;7.018;2023-12-14T09:29:11;8.10;99.90
13998;DHT22;7074;51.508;7.018;2023-12-14T09:31:41;8.10;99.90
13998;DHT22;7074;51.508;7.018;2023-12-14T09:34:10;8.00;99.90
13998;DHT22;7074;51.508;7.018;2023-12-14T09:36:37;8.00;99.90
13998;DHT22;7074;51.508;7.018;2023-12-14T09:39:04;7.80;99.90
13998;DHT22;7074;51.508;7.018;2023-12-14T09:41:36;7.80;99.90
13998;DHT22;7074;51.508;7.018;2023-12-14T09:44:04;7.70;99.90
13998;DHT22;7074;51.508;7.018;2023-12-14T09:46:34;7.80;99.90
13998;DHT22;7074;51.508;7.018;2023-12-14T09:49:04;7.70;99.90
13998;DHT22;7074;51.508;7.018;2023-12-14T09:51:32;7.90;99.90
13998;DHT22;7074;51.508;7.018;2023-12-14T09:53:59;8.00;99.90
13998;DHT22;7074;51.508;7.018;2023-12-14T09:56:27;8.10;99.90
13998;DHT22;7074;51.508;7.018;2023-12-14T09:58:55;8.20;99.90
13998;DHT22;7074;51.508;7.018;2023-12-14T10:01:24;8.30;99.90
13998;DHT22;7074;51.508;7.018;2023-12-14T10:04:07;8.30;99.90
13998;DHT22;7074;51.508;7.018;2023-12-14T10:06:36;8.30;99.90
13998;DHT22;7074;51.508;7.018;2023-12-14T10:09:04;8.30;99.90
13998;DHT22;7074;51.508;7.018;2023-12-14T10:11:35;8.30;99.90
13998;DHT22;7074;51.508;7.018;2023-12-14T10:14:18;8.30;99.90
13998;DHT22;7074;51.508;7.018;2023-12-14T10:16:47;8.30;99.90
13998;DHT22;7074;51.508;7.018;2023-12-14T10:19:16;8.20;99.90
13998;DHT22;7074;51.508;7.018;2023-12-14T10:21:46;8.10;99.90
13998;DHT22;7074;51.508;7.018;2023-12-14T10:24:13;8.10;99.90
13998;DHT22;7074;51.508;7.018;2023-12-14T10:26:41;8.20;99.90
13998;DHT22;7074;51.508;7.018;2023-12-14T10:29:08;8.20;99.90
13998;DHT22;7074;51.508;7.018;2023-12-14T10:31:36;8.20;99.90
13998;DHT22;7074;51.508;7.018;2023-12-14T10:34:04;8.20;99.90
13998;DHT22;7074;51.508;7.018;2023-12-14T10:36:32;8.20;99.90
13998;DHT22;7074;51.508;7.018;2023-12-14T10:39:01;8.10;99.90
13998;DHT22;7074;51.508;7.018;2023-12-14T10:41:31;8.10;99.90
13998;DHT22;7074;51.508;7.018;2023-12-14T10:44:00;8.10;99.90
13998;DHT22;7074;51.508;7.018;2023-12-14T10:46:28;8.20;99.90
13998;DHT22;7074;51.508;7.018;2023-12-14T10:48:56;8.00;99.90
13998;DHT22;7074;51.508;7.018;2023-12-14T10:51:26;8.00;99.90
13998;DHT22;7074;51.508;7.018;2023-12-14T10:53:54;8.10;99.90
13998;DHT22;7074;51.508;7.018;2023-12-14T10:56:25;8.00;99.90
13998;DHT22;7074;51.508;7.018;2023-12-14T10:58:53;7.90;99.90
13998;DHT22;7074;51.508;7.018;2023-12-14T11:01:22;8.00;99.90
13998;DHT22;7074;51.508;7.018;2023-12-14T11:03:50;8.10;99.90
13998;DHT22;7074;51.508;7.018;2023-12-14T11:06:26;8.10;99.90
13998;DHT22;7074;51.508;7.018;2023-12-14T11:08:56;8.10;99.90
13998;DHT22;7074;51.508;7.018;2023-12-14T11:11:28;7.90;99.90
13998;DHT22;7074;51.508;7.018;2023-12-14T11:13:56;7.90;99.90
13998;DHT22;7074;51.508;7.018;2023-12-14T11:16:26;7.90;99.90
13998;DHT22;7074;51.508;7.018;2023-12-14T11:19:28;7.80;99.90
13998;DHT22;7074;51.508;7.018;2023-12-14T11:22:23;7.80;99.90
13998;DHT22;7074;51.508;7.018;2023-12-14T11:24:53;7.90;99.90
13998;DHT22;7074;51.508;7.018;2023-12-14T11:27:26;7.90;99.90
13998;DHT22;7074;51.508;7.018;2023-12-14T11:29:53;8.00;99.90
13998;DHT22;7074;51.508;7.018;2023-12-14T11:32:20;7.90;99.90
13998;DHT22;7074;51.508;7.018;2023-12-14T11:34:48;7.90;99.90
13998;DHT22;7074;51.508;7.018;2023-12-14T11:37:15;8.00;99.90
13998;DHT22;7074;51.508;7.018;2023-12-14T11:39:43;7.80;99.90
13998;DHT22;7074;51.508;7.018;2023-12-14T11:42:12;7.80;99.90
13998;DHT22;7074;51.508;7.018;2023-12-14T11:44:45;7.90;99.90
13998;DHT22;7074;51.508;7.018;2023-12-14T11:47:12;7.90;99.90
13998;DHT22;7074;51.508;7.018;2023-12-14T11:49:40;7.80;99.90
13998;DHT22;7074;51.508;7.018;2023-12-14T11:52:07;7.90;99.90
13998;DHT22;7074;51.508;7.018;2023-12-14T11:54:35;7.80;99.90
13998;DHT22;7074;51.508;7.018;2023-12-14T11:57:04;7.80;99.90
13998;DHT22;7074;51.508;7.018;2023-12-14T11:59:34;7.80;99.90
13998;DHT22;7074;51.508;7.018;2023-12-14T12:02:06;7.90;99.90
13998;DHT22;7074;51.508;7.018;2023-12-14T12:04:33;7.90;99.90
13998;DHT22;7074;51.508;7.018;2023-12-14T12:07:02;7.80;99.90
13998;DHT22;7074;51.508;7.018;2023-12-14T12:09:36;7.90;99.90
13998;DHT22;7074;51.508;7.018;2023-12-14T12:12:06;8.00;99.90
13998;DHT22;7074;51.508;7.018;2023-12-14T12:14:33;8.10;99.90
13998;DHT22;7074;51.508;7.018;2023-12-14T12:17:01;8.00;99.90
13998;DHT22;7074;51.508;7.018;2023-12-14T12:19:32;8.00;99.90
13998;DHT22;7074;51.508;7.018;2023-12-14T12:22:00;8.10;99.90
13998;DHT22;7074;51.508;7.018;2023-12-14T12:24:27;8.10;99.90
13998;DHT22;7074;51.508;7.018;2023-12-14T12:26:55;8.00;99.90
13998;DHT22;7074;51.508;7.018;2023-12-14T12:29:23;8.00;99.90
13998;DHT22;7074;51.508;7.018;2023-12-14T12:31:50;8.00;99.90
13998;DHT22;7074;51.508;7.018;2023-12-14T12:34:17;8.00;99.90
13998;DHT22;7074;51.508;7.018;2023-12-14T12:36:46;8.10;99.90
13998;DHT22;7074;51.508;7.018;2023-12-14T12:39:13;8.10;99.90
13998;DHT22;7074;51.508;7.018;2023-12-14T12:41:41;8.00;99.90
13998;DHT22;7074;51.508;7.018;2023-12-14T12:44:09;8.00;99.90
13998;DHT22;7074;51.508;7.018;2023-12-14T12:46:36;8.00;99.90
13998;DHT22;7074;51.508;7.018;2023-12-14T12:49:04;8.00;99.90
13998;DHT22;7074;51.508;7.018;2023-12-14T12:51:32;8.00;99.90
13998;DHT22;7074;51.508;7.018;2023-12-14T12:54:02;7.90;99.90
13998;DHT22;7074;51.508;7.018;2023-12-14T12:56:30;7.90;99.90
13998;DHT22;7074;51.508;7.018;2023-12-14T12:58:57;7.90;99.90
13998;DHT22;7074;51.508;7.018;2023-12-14T13:01:26;7.90;99.90
13998;DHT22;7074;51.508;7.018;2023-12-14T13:03:54;7.80;99.90
13998;DHT22;7074;51.508;7.018;2023-12-14T13:06:23;7.80;99.90
13998;DHT22;7074;51.508;7.018;2023-12-14T13:08:51;7.70;99.90
13998;DHT22;7074;51.508;7.018;2023-12-14T13:11:21;7.70;99.90
13998;DHT22;7074;51.508;7.018;2023-12-14T13:13:48;7.80;99.90
13998;DHT22;7074;51.508;7.018;2023-12-14T13:16:15;7.70;99.90
13998;DHT22;7074;51.508;7.018;2023-12-14T13:18:43;7.80;99.90
13998;DHT22;7074;51.508;7.018;2023-12-14T13:21:11;7.90;99.90
13998;DHT22;7074;51.508;7.018;2023-12-14T13:23:39;7.90;99.90
13998;DHT22;7074;51.508;7.018;2023-12-14T13:26:06;8.00;99.90
13998;DHT22;7074;51.508;7.018;2023-12-14T13:28:35;7.90;99.90
13998;DHT22;7074;51.508;7.018;2023-12-14T13:31:02;7.80;99.90
13998;DHT22;7074;51.508;7.018;2023-12-14T13:33:30;7.90;99.90
13998;DHT22;7074;51.508;7.018;2023-12-14T13:35:57;7.90;99.90
13998;DHT22;7074;51.508;7.018;2023-12-14T13:38:25;8.00;99.90
13998;DHT22;7074;51.508;7.018;2023-12-14T13:40:52;7.90;99.90
13998;DHT22;7074;51.508;7.018;2023-12-14T13:43:19;7.80;99.90
13998;DHT22;7074;51.508;7.018;2023-12-14T13:45:49;7.70;99.90
13998;DHT22;7074;51.508;7.018;2023-12-14T13:48:18;7.70;99.90
13998;DHT22;7074;51.508;7.018;2023-12-14T13:50:45;7.60;99.90
13998;DHT22;7074;51.508;7.018;2023-12-14T13:53:13;7.60;99.90
13998;DHT22;7074;51.508;7.018;2023-12-14T13:55:40;7.70;99.90
13998;DHT22;7074;51.508;7.018;2023-12-14T13:58:07;7.70;99.90
13998;DHT22;7074;51.508;7.018;2023-12-14T14:00:34;7.70;99.90
13998;DHT22;7074;51.508;7.018;2023-12-14T14:03:04;7.70;99.90
13998;DHT22;7074;51.508;7.018;2023-12-14T14:05:31;7.70;99.90
13998;DHT22;7074;51.508;7.018;2023-12-14T14:07:59;7.80;99.90
13998;DHT22;7074;51.508;7.018;2023-12-14T14:10:27;7.90;99.90
13998;DHT22;7074;51.508;7.018;2023-12-14T14:12:54;7.80;99.90
13998;DHT22;7074;51.508;7.018;2023-12-14T14:15:22;7.70;99.90
13998;DHT22;7074;51.508;7.018;2023-12-14T14:17:49;7.70;99.90
13998;DHT22;7074;51.508;7.018;2023-12-14T14:20:19;7.70;99.90
13998;DHT22;7074;51.508;7.018;2023-12-14T14:22:48;7.60;99.90
13998;DHT22;7074;51.508;7.018;2023-12-14T14:25:15;7.60;99.90
13998;DHT22;7074;51.508;7.018;2023-12-14T14:27:43;7.60;99.90
13998;DHT22;7074;51.508;7.018;2023-12-14T14:30:13;7.80;99.90
13998;DHT22;7074;51.508;7.018;2023-12-14T14:32:41;7.80;99.90
13998;DHT22;7074;51.508;7.018;2023-12-14T14:35:09;7.70;99.90
13998;DHT22;7074;51.508;7.018;2023-12-14T14:37:38;7.80;99.90
13998;DHT22;7074;51.508;7.018;2023-12-14T14:40:07;7.70;99.90
13998;DHT22;7074;51.508;7.018;2023-12-14T14:42:34;7.70;99.90
13998;DHT22;7074;51.508;7.018;2023-12-14T14:45:02;7.60;99.90
13998;DHT22;7074;51.508;7.018;2023-12-14T14:47:30;7.70;99.90
13998;DHT22;7074;51.508;7.018;2023-12-14T14:49:57;7.70;99.90
13998;DHT22;7074;51.508;7.018;2023-12-14T14:52:29;7.70;99.90
13998;DHT22;7074;51.508;7.018;2023-12-14T14:54:58;7.60;99.90
13998;DHT22;7074;51.508;7.018;2023-12-14T14:57:26;7.70;99.90
13998;DHT22;7074;51.508;7.018;2023-12-14T14:59:53;7.60;99.90
13998;DHT22;7074;51.508;7.018;2023-12-14T15:02:21;7.60;99.90
13998;DHT22;7074;51.508;7.018;2023-12-14T15:04:49;7.60;99.90
13998;DHT22;7074;51.508;7.018;2023-12-14T15:07:16;7.60;99.90
13998;DHT22;7074;51.508;7.018;2023-12-14T15:09:44;7.60;99.90
13998;DHT22;7074;51.508;7.018;2023-12-14T15:12:13;7.70;99.90
13998;DHT22;7074;51.508;7.018;2023-12-14T15:14:40;7.70;99.90
13998;DHT22;7074;51.508;7.018;2023-12-14T15:17:07;7.60;99.90
13998;DHT22;7074;51.508;7.018;2023-12-14T15:19:35;7.70;99.90
13998;DHT22;7074;51.508;7.018;2023-12-14T15:22:02;7.60;99.90
13998;DHT22;7074;51.508;7.018;2023-12-14T15:24:30;7.40;99.90
13998;DHT22;7074;51.508;7.018;2023-12-14T15:26:57;7.60;99.90
13998;DHT22;7074;51.508;7.018;2023-12-14T15:29:26;7.60;99.90
13998;DHT22;7074;51.508;7.018;2023-12-14T15:31:54;7.60;99.90
13998;DHT22;7074;51.508;7.018;2023-12-14T15:34:23;7.60;99.90
13998;DHT22;7074;51.508;7.018;2023-12-14T15:36:51;7.70;99.90
13998;DHT22;7074;51.508;7.018;2023-12-14T15:39:18;7.80;99.90
13998;DHT22;7074;51.508;7.018;2023-12-14T15:41:46;7.60;99.90
13998;DHT22;7074;51.508;7.018;2023-12-14T15:44:13;7.70;99.90
13998;DHT22;7074;51.508;7.018;2023-12-14T15:46:42;7.70;99.90
13998;DHT22;7074;51.508;7.018;2023-12-14T15:49:09;7.60;99.90
13998;DHT22;7074;51.508;7.018;2023-12-14T15:51:39;7.60;99.90
13998;DHT22;7074;51.508;7.018;2023-12-14T15:54:07;7.50;99.90
13998;DHT22;7074;51.508;7.018;2023-12-14T15:56:35;7.60;99.90
13998;DHT22;7074;51.508;7.018;2023-12-14T15:59:02;7.60;99.90
13998;DHT22;7074;51.508;7.018;2023-12-14T16:01:33;7.60;99.90
13998;DHT22;7074;51.508;7.018;2023-12-14T16:04:04;7.60;99.90
13998;DHT22;7074;51.508;7.018;2023-12-14T16:06:31;7.50;99.90